Albin, Wyoming
Current Conditions -  °F | °C
As of 5:35 PM on Saturday 25 Oct 2014 (Local Time) from K82V Reporting Station
Clear Clear  
Wind Chill: 20°   Ceiling: Unl
Heat Index: 20°   Visibility: 10mi
Dew Point: -1°   Wind: 7mph
Humidity: 24%   Direction: 180°S
Pressure: 30.06"   Gusts: NA
Location:  41.42°N, 104.1°W
Report Text: K82V 252335Z AUTO 18006KT 10SM CLR 20/M01 A3006 RMK AO2
Loading
Personal Weather Stations






























Interactive Weather Map
Tropical Storm Tracking
New forecast layout! Learn more

10-Day Weather Forecast

Advertisements
Track Severe Weather on mobile